sensor_id;sensor_type;location;lat;lon;timestamp;temperature;humidity
10010;DHT22;5044;48.652;9.250;2022-10-04T00:01:02;7.60;99.90
10010;DHT22;5044;48.652;9.250;2022-10-04T00:03:34;7.10;99.90
10010;DHT22;5044;48.652;9.250;2022-10-04T00:06:04;7.10;99.90
10010;DHT22;5044;48.652;9.250;2022-10-04T00:08:41;7.10;99.90
10010;DHT22;5044;48.652;9.250;2022-10-04T00:11:13;7.10;99.90
10010;DHT22;5044;48.652;9.250;2022-10-04T00:13:46;7.00;99.90
10010;DHT22;5044;48.652;9.250;2022-10-04T00:16:20;7.10;99.90
10010;DHT22;5044;48.652;9.250;2022-10-04T00:18:48;7.00;99.90
10010;DHT22;5044;48.652;9.250;2022-10-04T00:21:16;7.00;99.90
10010;DHT22;5044;48.652;9.250;2022-10-04T00:23:46;6.90;99.90
10010;DHT22;5044;48.652;9.250;2022-10-04T00:29:37;6.90;99.90
10010;DHT22;5044;48.652;9.250;2022-10-04T00:32:27;6.90;99.90
10010;DHT22;5044;48.652;9.250;2022-10-04T00:34:55;6.80;99.90
10010;DHT22;5044;48.652;9.250;2022-10-04T00:37:23;6.80;99.90
10010;DHT22;5044;48.652;9.250;2022-10-04T00:40:04;6.80;99.90
10010;DHT22;5044;48.652;9.250;2022-10-04T00:42:51;7.00;99.90
10010;DHT22;5044;48.652;9.250;2022-10-04T00:45:34;6.80;99.90
10010;DHT22;5044;48.652;9.250;2022-10-04T00:48:33;6.80;99.90
10010;DHT22;5044;48.652;9.250;2022-10-04T00:51:18;6.80;99.90
10010;DHT22;5044;48.652;9.250;2022-10-04T00:53:56;6.80;99.90
10010;DHT22;5044;48.652;9.250;2022-10-04T00:56:35;6.70;99.90
10010;DHT22;5044;48.652;9.250;2022-10-04T00:59:22;6.70;99.90
10010;DHT22;5044;48.652;9.250;2022-10-04T01:01:55;6.70;99.90
10010;DHT22;5044;48.652;9.250;2022-10-04T01:04:35;6.70;99.90
10010;DHT22;5044;48.652;9.250;2022-10-04T01:07:04;6.60;99.90
10010;DHT22;5044;48.652;9.250;2022-10-04T01:09:35;6.60;99.90
10010;DHT22;5044;48.652;9.250;2022-10-04T01:12:09;6.60;99.90
10010;DHT22;5044;48.652;9.250;2022-10-04T01:14:46;6.60;99.90
10010;DHT22;5044;48.652;9.250;2022-10-04T01:17:15;6.60;99.90
10010;DHT22;5044;48.652;9.250;2022-10-04T01:19:50;6.50;99.90
10010;DHT22;5044;48.652;9.250;2022-10-04T01:22:36;6.40;99.90
10010;DHT22;5044;48.652;9.250;2022-10-04T01:25:05;6.40;99.90
10010;DHT22;5044;48.652;9.250;2022-10-04T01:27:35;6.40;99.90
10010;DHT22;5044;48.652;9.250;2022-10-04T01:30:05;6.40;99.90
10010;DHT22;5044;48.652;9.250;2022-10-04T01:32:33;6.40;99.90
10010;DHT22;5044;48.652;9.250;2022-10-04T01:35:01;6.40;99.90
10010;DHT22;5044;48.652;9.250;2022-10-04T01:37:28;6.30;99.90
10010;DHT22;5044;48.652;9.250;2022-10-04T01:39:56;6.30;99.90
10010;DHT22;5044;48.652;9.250;2022-10-04T01:42:28;6.30;99.90
10010;DHT22;5044;48.652;9.250;2022-10-04T01:45:00;6.20;99.90
10010;DHT22;5044;48.652;9.250;2022-10-04T01:47:32;6.20;99.90
10010;DHT22;5044;48.652;9.250;2022-10-04T01:50:07;6.10;99.90
10010;DHT22;5044;48.652;9.250;2022-10-04T01:52:40;6.10;99.90
10010;DHT22;5044;48.652;9.250;2022-10-04T01:55:14;6.10;99.90
10010;DHT22;5044;48.652;9.250;2022-10-04T01:57:46;6.40;99.90
10010;DHT22;5044;48.652;9.250;2022-10-04T02:00:15;6.10;99.90
10010;DHT22;5044;48.652;9.250;2022-10-04T02:02:48;6.60;99.90
10010;DHT22;5044;48.652;9.250;2022-10-04T02:05:18;6.10;99.90
10010;DHT22;5044;48.652;9.250;2022-10-04T02:07:48;6.20;99.90
10010;DHT22;5044;48.652;9.250;2022-10-04T02:10:19;6.10;99.90
10010;DHT22;5044;48.652;9.250;2022-10-04T02:12:48;6.00;99.90
10010;DHT22;5044;48.652;9.250;2022-10-04T02:15:18;6.00;99.90
10010;DHT22;5044;48.652;9.250;2022-10-04T02:17:47;6.10;99.90
10010;DHT22;5044;48.652;9.250;2022-10-04T02:20:17;6.00;99.90
10010;DHT22;5044;48.652;9.250;2022-10-04T02:22:49;6.00;99.90
10010;DHT22;5044;48.652;9.250;2022-10-04T02:25:19;6.00;99.90
10010;DHT22;5044;48.652;9.250;2022-10-04T02:27:47;6.00;99.90
10010;DHT22;5044;48.652;9.250;2022-10-04T02:30:17;6.00;99.90
10010;DHT22;5044;48.652;9.250;2022-10-04T02:32:46;6.00;99.90
10010;DHT22;5044;48.652;9.250;2022-10-04T02:35:27;6.00;99.90
10010;DHT22;5044;48.652;9.250;2022-10-04T02:38:02;6.00;99.90
10010;DHT22;5044;48.652;9.250;2022-10-04T02:40:37;5.90;99.90
10010;DHT22;5044;48.652;9.250;2022-10-04T02:43:10;5.80;99.90
10010;DHT22;5044;48.652;9.250;2022-10-04T02:45:44;5.80;99.90
10010;DHT22;5044;48.652;9.250;2022-10-04T02:48:28;5.80;99.90
10010;DHT22;5044;48.652;9.250;2022-10-04T02:51:00;5.70;99.90
10010;DHT22;5044;48.652;9.250;2022-10-04T02:53:37;5.70;99.90
10010;DHT22;5044;48.652;9.250;2022-10-04T02:56:08;5.80;99.90
10010;DHT22;5044;48.652;9.250;2022-10-04T02:58:38;5.70;99.90
10010;DHT22;5044;48.652;9.250;2022-10-04T03:01:06;5.70;99.90
10010;DHT22;5044;48.652;9.250;2022-10-04T03:03:45;5.70;99.90
10010;DHT22;5044;48.652;9.250;2022-10-04T03:06:15;5.70;99.90
10010;DHT22;5044;48.652;9.250;2022-10-04T03:08:46;5.60;99.90
10010;DHT22;5044;48.652;9.250;2022-10-04T03:11:18;5.70;99.90
10010;DHT22;5044;48.652;9.250;2022-10-04T03:13:50;5.70;99.90
10010;DHT22;5044;48.652;9.250;2022-10-04T03:16:18;5.60;99.90
10010;DHT22;5044;48.652;9.250;2022-10-04T03:18:47;5.60;99.90
10010;DHT22;5044;48.652;9.250;2022-10-04T03:21:16;5.60;99.90
10010;DHT22;5044;48.652;9.250;2022-10-04T03:23:45;5.60;99.90
10010;DHT22;5044;48.652;9.250;2022-10-04T03:26:21;5.60;99.90
10010;DHT22;5044;48.652;9.250;2022-10-04T03:28:49;5.60;99.90
10010;DHT22;5044;48.652;9.250;2022-10-04T03:31:17;5.60;99.90
10010;DHT22;5044;48.652;9.250;2022-10-04T03:33:45;5.60;99.90
10010;DHT22;5044;48.652;9.250;2022-10-04T03:36:14;5.50;99.90
10010;DHT22;5044;48.652;9.250;2022-10-04T03:38:44;5.60;99.90
10010;DHT22;5044;48.652;9.250;2022-10-04T03:41:13;5.50;99.90
10010;DHT22;5044;48.652;9.250;2022-10-04T03:43:47;5.50;99.90
10010;DHT22;5044;48.652;9.250;2022-10-04T03:46:16;5.40;99.90
10010;DHT22;5044;48.652;9.250;2022-10-04T03:48:47;5.40;99.90
10010;DHT22;5044;48.652;9.250;2022-10-04T03:51:17;5.40;99.90
10010;DHT22;5044;48.652;9.250;2022-10-04T03:53:46;5.40;99.90
10010;DHT22;5044;48.652;9.250;2022-10-04T03:56:16;5.40;99.90
10010;DHT22;5044;48.652;9.250;2022-10-04T03:58:46;5.40;99.90
10010;DHT22;5044;48.652;9.250;2022-10-04T04:01:22;5.40;99.90
10010;DHT22;5044;48.652;9.250;2022-10-04T04:04:00;5.40;99.90
10010;DHT22;5044;48.652;9.250;2022-10-04T04:06:35;5.40;99.90
10010;DHT22;5044;48.652;9.250;2022-10-04T04:09:03;5.40;99.90
10010;DHT22;5044;48.652;9.250;2022-10-04T04:11:32;5.30;99.90
10010;DHT22;5044;48.652;9.250;2022-10-04T04:14:05;5.20;99.90
10010;DHT22;5044;48.652;9.250;2022-10-04T04:16:35;5.20;99.90
10010;DHT22;5044;48.652;9.250;2022-10-04T04:19:08;5.20;99.90
10010;DHT22;5044;48.652;9.250;2022-10-04T04:21:37;5.20;99.90
10010;DHT22;5044;48.652;9.250;2022-10-04T04:24:06;5.20;99.90
10010;DHT22;5044;48.652;9.250;2022-10-04T04:26:42;5.20;99.90
10010;DHT22;5044;48.652;9.250;2022-10-04T04:29:17;5.30;99.90
10010;DHT22;5044;48.652;9.250;2022-10-04T04:31:51;5.10;99.90
10010;DHT22;5044;48.652;9.250;2022-10-04T04:34:20;5.10;99.90
10010;DHT22;5044;48.652;9.250;2022-10-04T04:36:47;5.20;99.90
10010;DHT22;5044;48.652;9.250;2022-10-04T04:39:16;5.10;99.90
10010;DHT22;5044;48.652;9.250;2022-10-04T04:42:12;5.10;99.90
10010;DHT22;5044;48.652;9.250;2022-10-04T04:44:47;5.10;99.90
10010;DHT22;5044;48.652;9.250;2022-10-04T04:47:25;5.10;99.90
10010;DHT22;5044;48.652;9.250;2022-10-04T04:49:54;5.10;99.90
10010;DHT22;5044;48.652;9.250;2022-10-04T04:52:24;5.10;99.90
10010;DHT22;5044;48.652;9.250;2022-10-04T04:54:52;5.10;99.90
10010;DHT22;5044;48.652;9.250;2022-10-04T04:57:20;5.00;99.90
10010;DHT22;5044;48.652;9.250;2022-10-04T04:59:50;5.00;99.90
10010;DHT22;5044;48.652;9.250;2022-10-04T05:02:30;5.00;99.90
10010;DHT22;5044;48.652;9.250;2022-10-04T05:05:17;4.90;99.90
10010;DHT22;5044;48.652;9.250;2022-10-04T05:07:45;4.90;99.90
10010;DHT22;5044;48.652;9.250;2022-10-04T05:10:20;4.90;99.90
10010;DHT22;5044;48.652;9.250;2022-10-04T05:12:47;4.90;99.90
10010;DHT22;5044;48.652;9.250;2022-10-04T05:15:16;4.90;99.90
10010;DHT22;5044;48.652;9.250;2022-10-04T05:17:44;4.90;99.90
10010;DHT22;5044;48.652;9.250;2022-10-04T05:20:12;4.80;99.90
10010;DHT22;5044;48.652;9.250;2022-10-04T05:22:44;4.80;99.90
10010;DHT22;5044;48.652;9.250;2022-10-04T05:25:17;4.80;99.90
10010;DHT22;5044;48.652;9.250;2022-10-04T05:27:47;4.80;99.90
10010;DHT22;5044;48.652;9.250;2022-10-04T05:30:28;4.70;99.90
10010;DHT22;5044;48.652;9.250;2022-10-04T05:33:00;4.80;99.90
10010;DHT22;5044;48.652;9.250;2022-10-04T05:35:28;4.60;99.90
10010;DHT22;5044;48.652;9.250;2022-10-04T05:38:02;4.60;99.90
10010;DHT22;5044;48.652;9.250;2022-10-04T05:40:41;4.50;99.90
10010;DHT22;5044;48.652;9.250;2022-10-04T05:43:21;4.60;99.90
10010;DHT22;5044;48.652;9.250;2022-10-04T05:46:19;4.70;99.90
10010;DHT22;5044;48.652;9.250;2022-10-04T05:48:52;4.70;99.90
10010;DHT22;5044;48.652;9.250;2022-10-04T05:51:22;4.70;99.90
10010;DHT22;5044;48.652;9.250;2022-10-04T05:53:50;4.70;99.90
10010;DHT22;5044;48.652;9.250;2022-10-04T05:56:48;4.70;99.90
10010;DHT22;5044;48.652;9.250;2022-10-04T05:59:39;4.80;99.90
10010;DHT22;5044;48.652;9.250;2022-10-04T06:02:21;4.80;99.90
10010;DHT22;5044;48.652;9.250;2022-10-04T06:05:02;4.80;99.90
10010;DHT22;5044;48.652;9.250;2022-10-04T06:07:38;4.80;99.90
10010;DHT22;5044;48.652;9.250;2022-10-04T06:10:36;4.90;99.90
10010;DHT22;5044;48.652;9.250;2022-10-04T06:13:18;4.80;99.90
10010;DHT22;5044;48.652;9.250;2022-10-04T06:15:58;4.90;99.90
10010;DHT22;5044;48.652;9.250;2022-10-04T06:19:03;5.00;99.90
10010;DHT22;5044;48.652;9.250;2022-10-04T06:21:39;5.00;99.90
10010;DHT22;5044;48.652;9.250;2022-10-04T06:24:15;5.00;99.90
10010;DHT22;5044;48.652;9.250;2022-10-04T06:26:48;5.00;99.90
10010;DHT22;5044;48.652;9.250;2022-10-04T06:29:19;5.10;99.90
10010;DHT22;5044;48.652;9.250;2022-10-04T06:32:10;5.10;99.90
10010;DHT22;5044;48.652;9.250;2022-10-04T06:35:08;5.20;99.90
10010;DHT22;5044;48.652;9.250;2022-10-04T06:41:08;5.30;99.90
10010;DHT22;5044;48.652;9.250;2022-10-04T06:43:57;5.30;99.90
10010;DHT22;5044;48.652;9.250;2022-10-04T06:46:33;5.30;99.90
10010;DHT22;5044;48.652;9.250;2022-10-04T06:49:30;5.40;99.90
10010;DHT22;5044;48.652;9.250;2022-10-04T06:52:24;5.40;99.90
10010;DHT22;5044;48.652;9.250;2022-10-04T06:55:09;5.50;99.90
10010;DHT22;5044;48.652;9.250;2022-10-04T06:57:51;5.50;99.90
10010;DHT22;5044;48.652;9.250;2022-10-04T07:00:24;5.60;99.90
10010;DHT22;5044;48.652;9.250;2022-10-04T07:02:54;5.70;99.90
10010;DHT22;5044;48.652;9.250;2022-10-04T07:05:28;5.80;99.90
10010;DHT22;5044;48.652;9.250;2022-10-04T07:08:08;5.80;99.90
10010;DHT22;5044;48.652;9.250;2022-10-04T07:10:44;6.00;99.90
10010;DHT22;5044;48.652;9.250;2022-10-04T07:13:20;6.00;99.90
10010;DHT22;5044;48.652;9.250;2022-10-04T07:15:54;6.00;99.90
10010;DHT22;5044;48.652;9.250;2022-10-04T07:18:25;6.10;99.90
10010;DHT22;5044;48.652;9.250;2022-10-04T07:21:00;6.20;99.90
10010;DHT22;5044;48.652;9.250;2022-10-04T07:23:31;6.30;99.90
10010;DHT22;5044;48.652;9.250;2022-10-04T07:26:05;6.30;99.90
10010;DHT22;5044;48.652;9.250;2022-10-04T07:28:39;6.40;99.90
10010;DHT22;5044;48.652;9.250;2022-10-04T07:31:26;6.60;99.90
10010;DHT22;5044;48.652;9.250;2022-10-04T07:33:56;6.50;99.90
10010;DHT22;5044;48.652;9.250;2022-10-04T07:36:28;6.60;99.90
10010;DHT22;5044;48.652;9.250;2022-10-04T07:39:04;6.60;99.90
10010;DHT22;5044;48.652;9.250;2022-10-04T07:41:34;6.70;99.90
10010;DHT22;5044;48.652;9.250;2022-10-04T07:44:11;6.90;99.90
10010;DHT22;5044;48.652;9.250;2022-10-04T07:46:47;6.90;99.90
10010;DHT22;5044;48.652;9.250;2022-10-04T07:49:18;7.10;99.90
10010;DHT22;5044;48.652;9.250;2022-10-04T07:54:39;7.10;99.90
10010;DHT22;5044;48.652;9.250;2022-10-04T07:57:14;7.10;99.90
10010;DHT22;5044;48.652;9.250;2022-10-04T07:59:51;7.50;99.90
10010;DHT22;5044;48.652;9.250;2022-10-04T08:02:30;7.30;99.90
10010;DHT22;5044;48.652;9.250;2022-10-04T08:05:11;7.40;99.90
10010;DHT22;5044;48.652;9.250;2022-10-04T08:07:56;7.50;99.90
10010;DHT22;5044;48.652;9.250;2022-10-04T08:10:31;7.70;99.90
10010;DHT22;5044;48.652;9.250;2022-10-04T08:13:04;7.80;99.90
10010;DHT22;5044;48.652;9.250;2022-10-04T08:15:35;8.00;99.90
10010;DHT22;5044;48.652;9.250;2022-10-04T08:18:18;8.10;99.90
10010;DHT22;5044;48.652;9.250;2022-10-04T08:20:49;8.30;99.90
10010;DHT22;5044;48.652;9.250;2022-10-04T08:23:37;8.30;99.90
10010;DHT22;5044;48.652;9.250;2022-10-04T08:26:16;8.40;99.90
10010;DHT22;5044;48.652;9.250;2022-10-04T08:28:53;8.50;99.90
10010;DHT22;5044;48.652;9.250;2022-10-04T08:31:55;8.60;99.90
10010;DHT22;5044;48.652;9.250;2022-10-04T08:34:37;8.60;99.90
10010;DHT22;5044;48.652;9.250;2022-10-04T08:37:16;8.70;99.90
10010;DHT22;5044;48.652;9.250;2022-10-04T08:43:02;8.90;99.90
10010;DHT22;5044;48.652;9.250;2022-10-04T08:45:59;9.20;99.90
10010;DHT22;5044;48.652;9.250;2022-10-04T08:48:59;9.30;99.90
10010;DHT22;5044;48.652;9.250;2022-10-04T08:52:04;9.40;99.90
10010;DHT22;5044;48.652;9.250;2022-10-04T08:55:15;9.50;99.90
10010;DHT22;5044;48.652;9.250;2022-10-04T08:58:07;9.70;99.90
10010;DHT22;5044;48.652;9.250;2022-10-04T09:00:49;9.80;99.90
10010;DHT22;5044;48.652;9.250;2022-10-04T09:03:35;9.90;99.90
10010;DHT22;5044;48.652;9.250;2022-10-04T09:06:15;9.90;99.90
10010;DHT22;5044;48.652;9.250;2022-10-04T09:09:18;10.00;99.90
10010;DHT22;5044;48.652;9.250;2022-10-04T09:12:13;10.10;99.90
10010;DHT22;5044;48.652;9.250;2022-10-04T09:17:52;10.40;99.90
10010;DHT22;5044;48.652;9.250;2022-10-04T09:20:22;10.70;99.90
10010;DHT22;5044;48.652;9.250;2022-10-04T09:23:10;10.90;99.90
10010;DHT22;5044;48.652;9.250;2022-10-04T09:25:52;11.10;99.90
10010;DHT22;5044;48.652;9.250;2022-10-04T09:28:41;11.30;99.90
10010;DHT22;5044;48.652;9.250;2022-10-04T09:31:29;11.20;99.90
10010;DHT22;5044;48.652;9.250;2022-10-04T09:34:08;11.30;99.90
10010;DHT22;5044;48.652;9.250;2022-10-04T09:37:01;11.60;99.90
10010;DHT22;5044;48.652;9.250;2022-10-04T09:39:54;11.80;99.90
10010;DHT22;5044;48.652;9.250;2022-10-04T09:42:56;12.10;99.90
10010;DHT22;5044;48.652;9.250;2022-10-04T09:48:29;12.50;99.90
10010;DHT22;5044;48.652;9.250;2022-10-04T09:51:11;12.50;99.90
10010;DHT22;5044;48.652;9.250;2022-10-04T09:53:53;12.50;99.90
10010;DHT22;5044;48.652;9.250;2022-10-04T10:09:01;13.00;99.90
10010;DHT22;5044;48.652;9.250;2022-10-04T10:11:41;13.20;99.90
10010;DHT22;5044;48.652;9.250;2022-10-04T10:14:55;13.40;99.90
10010;DHT22;5044;48.652;9.250;2022-10-04T10:17:31;13.50;99.90
10010;DHT22;5044;48.652;9.250;2022-10-04T10:20:30;13.70;99.90
10010;DHT22;5044;48.652;9.250;2022-10-04T10:23:29;13.90;99.90
10010;DHT22;5044;48.652;9.250;2022-10-04T10:26:29;14.00;99.90
10010;DHT22;5044;48.652;9.250;2022-10-04T10:29:10;14.00;99.90
10010;DHT22;5044;48.652;9.250;2022-10-04T10:31:52;14.20;99.90
10010;DHT22;5044;48.652;9.250;2022-10-04T10:34:45;14.40;99.90
10010;DHT22;5044;48.652;9.250;2022-10-04T10:37:21;14.50;99.90
10010;DHT22;5044;48.652;9.250;2022-10-04T10:40:02;14.60;99.90
10010;DHT22;5044;48.652;9.250;2022-10-04T10:43:08;14.50;99.90
10010;DHT22;5044;48.652;9.250;2022-10-04T10:45:53;14.70;99.90
10010;DHT22;5044;48.652;9.250;2022-10-04T10:48:34;14.90;99.90
10010;DHT22;5044;48.652;9.250;2022-10-04T10:51:09;15.10;99.90
10010;DHT22;5044;48.652;9.250;2022-10-04T10:54:13;15.30;99.90
10010;DHT22;5044;48.652;9.250;2022-10-04T10:56:51;15.40;99.90
10010;DHT22;5044;48.652;9.250;2022-10-04T11:00:00;15.50;99.90
10010;DHT22;5044;48.652;9.250;2022-10-04T11:06:05;15.80;99.90
10010;DHT22;5044;48.652;9.250;2022-10-04T11:11:43;16.40;99.90
10010;DHT22;5044;48.652;9.250;2022-10-04T11:14:29;16.60;99.90
10010;DHT22;5044;48.652;9.250;2022-10-04T11:17:36;16.40;99.90
10010;DHT22;5044;48.652;9.250;2022-10-04T11:20:43;16.50;99.90
10010;DHT22;5044;48.652;9.250;2022-10-04T11:24:03;16.60;99.90
10010;DHT22;5044;48.652;9.250;2022-10-04T11:26:54;16.80;99.90
10010;DHT22;5044;48.652;9.250;2022-10-04T11:29:44;17.00;99.90
10010;DHT22;5044;48.652;9.250;2022-10-04T11:32:51;17.10;99.90
10010;DHT22;5044;48.652;9.250;2022-10-04T11:35:56;17.20;99.90
10010;DHT22;5044;48.652;9.250;2022-10-04T11:38:49;17.40;99.90
10010;DHT22;5044;48.652;9.250;2022-10-04T11:41:26;17.60;99.90
10010;DHT22;5044;48.652;9.250;2022-10-04T11:47:12;17.70;99.90
10010;DHT22;5044;48.652;9.250;2022-10-04T11:49:59;18.10;99.90
10010;DHT22;5044;48.652;9.250;2022-10-04T11:55:52;18.10;99.40
10010;DHT22;5044;48.652;9.250;2022-10-04T11:58:29;18.30;99.90
10010;DHT22;5044;48.652;9.250;2022-10-04T12:01:30;18.50;96.00
10010;DHT22;5044;48.652;9.250;2022-10-04T12:04:29;18.50;99.90
10010;DHT22;5044;48.652;9.250;2022-10-04T12:07:18;18.50;93.60
10010;DHT22;5044;48.652;9.250;2022-10-04T12:09:58;18.50;97.20
10010;DHT22;5044;48.652;9.250;2022-10-04T12:12:45;18.80;96.10
10010;DHT22;5044;48.652;9.250;2022-10-04T12:15:33;19.10;98.00
10010;DHT22;5044;48.652;9.250;2022-10-04T12:18:40;19.00;95.50
10010;DHT22;5044;48.652;9.250;2022-10-04T12:24:23;19.30;95.10
10010;DHT22;5044;48.652;9.250;2022-10-04T12:27:11;19.30;95.80
10010;DHT22;5044;48.652;9.250;2022-10-04T12:30:02;19.40;97.50
10010;DHT22;5044;48.652;9.250;2022-10-04T12:32:34;19.70;95.20
10010;DHT22;5044;48.652;9.250;2022-10-04T12:35:15;19.50;94.70
10010;DHT22;5044;48.652;9.250;2022-10-04T12:38:04;19.50;95.30
10010;DHT22;5044;48.652;9.250;2022-10-04T12:40:36;19.80;95.00
10010;DHT22;5044;48.652;9.250;2022-10-04T12:43:12;19.90;96.40
10010;DHT22;5044;48.652;9.250;2022-10-04T12:45:54;20.00;96.00
10010;DHT22;5044;48.652;9.250;2022-10-04T12:48:36;19.90;94.40
10010;DHT22;5044;48.652;9.250;2022-10-04T12:51:19;19.70;95.80
10010;DHT22;5044;48.652;9.250;2022-10-04T12:53:54;19.70;96.30
10010;DHT22;5044;48.652;9.250;2022-10-04T12:56:34;20.00;96.80
10010;DHT22;5044;48.652;9.250;2022-10-04T12:59:29;20.10;95.30
10010;DHT22;5044;48.652;9.250;2022-10-04T13:02:04;20.00;92.40
10010;DHT22;5044;48.652;9.250;2022-10-04T13:04:37;20.20;93.30
10010;DHT22;5044;48.652;9.250;2022-10-04T13:07:18;20.40;94.50
10010;DHT22;5044;48.652;9.250;2022-10-04T13:10:00;20.40;93.40
10010;DHT22;5044;48.652;9.250;2022-10-04T13:12:33;20.30;92.50
10010;DHT22;5044;48.652;9.250;2022-10-04T13:15:19;20.60;93.40
10010;DHT22;5044;48.652;9.250;2022-10-04T13:17:56;20.60;90.10
10010;DHT22;5044;48.652;9.250;2022-10-04T13:20:38;20.70;91.10
10010;DHT22;5044;48.652;9.250;2022-10-04T13:23:15;20.70;92.00
10010;DHT22;5044;48.652;9.250;2022-10-04T13:26:02;20.80;91.60
10010;DHT22;5044;48.652;9.250;2022-10-04T13:28:38;20.60;91.90
10010;DHT22;5044;48.652;9.250;2022-10-04T13:31:13;20.90;93.10
10010;DHT22;5044;48.652;9.250;2022-10-04T13:33:47;20.70;90.00
10010;DHT22;5044;48.652;9.250;2022-10-04T13:36:19;20.70;92.20
10010;DHT22;5044;48.652;9.250;2022-10-04T13:39:05;20.60;90.30
10010;DHT22;5044;48.652;9.250;2022-10-04T13:41:52;20.50;91.60
10010;DHT22;5044;48.652;9.250;2022-10-04T13:44:40;20.60;93.40
10010;DHT22;5044;48.652;9.250;2022-10-04T13:47:27;21.00;93.80
10010;DHT22;5044;48.652;9.250;2022-10-04T13:50:08;21.00;92.00
10010;DHT22;5044;48.652;9.250;2022-10-04T13:52:49;20.80;91.10
10010;DHT22;5044;48.652;9.250;2022-10-04T13:55:43;21.00;92.20
10010;DHT22;5044;48.652;9.250;2022-10-04T13:58:39;20.90;91.40
10010;DHT22;5044;48.652;9.250;2022-10-04T14:01:38;21.10;92.80
10010;DHT22;5044;48.652;9.250;2022-10-04T14:04:30;21.20;90.60
10010;DHT22;5044;48.652;9.250;2022-10-04T14:07:16;21.20;92.20
10010;DHT22;5044;48.652;9.250;2022-10-04T14:10:02;21.30;93.00
10010;DHT22;5044;48.652;9.250;2022-10-04T14:13:10;21.20;91.60
10010;DHT22;5044;48.652;9.250;2022-10-04T14:16:08;21.10;92.90
10010;DHT22;5044;48.652;9.250;2022-10-04T14:22:06;21.20;88.50
10010;DHT22;5044;48.652;9.250;2022-10-04T14:25:06;21.20;90.90
10010;DHT22;5044;48.652;9.250;2022-10-04T14:27:55;21.20;91.30
10010;DHT22;5044;48.652;9.250;2022-10-04T14:30:32;21.30;91.70
10010;DHT22;5044;48.652;9.250;2022-10-04T14:36:26;21.20;90.30
10010;DHT22;5044;48.652;9.250;2022-10-04T14:42:15;21.10;88.60
10010;DHT22;5044;48.652;9.250;2022-10-04T14:45:19;21.10;91.70
10010;DHT22;5044;48.652;9.250;2022-10-04T14:51:12;21.00;90.40
10010;DHT22;5044;48.652;9.250;2022-10-04T14:53:51;20.90;91.90
10010;DHT22;5044;48.652;9.250;2022-10-04T14:56:47;20.90;90.60
10010;DHT22;5044;48.652;9.250;2022-10-04T14:59:45;20.80;92.60
10010;DHT22;5044;48.652;9.250;2022-10-04T15:02:52;20.70;92.20
10010;DHT22;5044;48.652;9.250;2022-10-04T15:05:40;20.60;92.50
10010;DHT22;5044;48.652;9.250;2022-10-04T15:08:25;20.30;93.00
10010;DHT22;5044;48.652;9.250;2022-10-04T15:10:56;20.20;92.90
10010;DHT22;5044;48.652;9.250;2022-10-04T15:13:30;20.20;94.00
10010;DHT22;5044;48.652;9.250;2022-10-04T15:16:09;20.30;94.60
10010;DHT22;5044;48.652;9.250;2022-10-04T15:18:52;20.00;92.50
10010;DHT22;5044;48.652;9.250;2022-10-04T15:21:34;20.00;91.00
10010;DHT22;5044;48.652;9.250;2022-10-04T15:24:21;19.90;94.40
10010;DHT22;5044;48.652;9.250;2022-10-04T15:29:39;19.70;94.10
10010;DHT22;5044;48.652;9.250;2022-10-04T15:32:18;19.70;96.80
10010;DHT22;5044;48.652;9.250;2022-10-04T15:34:54;19.60;95.50
10010;DHT22;5044;48.652;9.250;2022-10-04T15:37:39;19.50;95.90
10010;DHT22;5044;48.652;9.250;2022-10-04T15:40:26;19.30;93.80
10010;DHT22;5044;48.652;9.250;2022-10-04T15:45:54;19.10;96.90
10010;DHT22;5044;48.652;9.250;2022-10-04T15:48:37;19.00;97.40
10010;DHT22;5044;48.652;9.250;2022-10-04T15:51:17;19.00;99.40
10010;DHT22;5044;48.652;9.250;2022-10-04T15:54:08;18.90;99.20
10010;DHT22;5044;48.652;9.250;2022-10-04T15:56:47;18.80;99.50
10010;DHT22;5044;48.652;9.250;2022-10-04T15:59:24;18.80;99.40
10010;DHT22;5044;48.652;9.250;2022-10-04T16:04:45;18.50;97.90
10010;DHT22;5044;48.652;9.250;2022-10-04T16:07:34;18.50;98.50
10010;DHT22;5044;48.652;9.250;2022-10-04T16:10:17;18.40;99.90
10010;DHT22;5044;48.652;9.250;2022-10-04T16:18:55;18.10;99.40
10010;DHT22;5044;48.652;9.250;2022-10-04T16:21:30;18.00;99.90
10010;DHT22;5044;48.652;9.250;2022-10-04T16:24:25;17.90;99.90
10010;DHT22;5044;48.652;9.250;2022-10-04T16:27:36;17.90;99.90
10010;DHT22;5044;48.652;9.250;2022-10-04T16:30:12;17.70;99.90
10010;DHT22;5044;48.652;9.250;2022-10-04T16:32:46;17.70;99.90
10010;DHT22;5044;48.652;9.250;2022-10-04T16:35:29;17.60;99.90
10010;DHT22;5044;48.652;9.250;2022-10-04T16:37:57;17.60;99.90
10010;DHT22;5044;48.652;9.250;2022-10-04T16:40:34;17.40;99.90
10010;DHT22;5044;48.652;9.250;2022-10-04T16:43:08;17.30;99.90
10010;DHT22;5044;48.652;9.250;2022-10-04T16:45:48;17.20;99.90
10010;DHT22;5044;48.652;9.250;2022-10-04T16:48:44;17.00;99.90
10010;DHT22;5044;48.652;9.250;2022-10-04T16:51:32;16.80;99.90
10010;DHT22;5044;48.652;9.250;2022-10-04T16:54:06;16.70;99.90
10010;DHT22;5044;48.652;9.250;2022-10-04T16:59:43;16.50;99.90
10010;DHT22;5044;48.652;9.250;2022-10-04T17:02:36;16.50;99.90
10010;DHT22;5044;48.652;9.250;2022-10-04T17:05:31;16.40;99.90
10010;DHT22;5044;48.652;9.250;2022-10-04T17:08:14;16.30;99.90
10010;DHT22;5044;48.652;9.250;2022-10-04T17:11:06;16.20;99.90
10010;DHT22;5044;48.652;9.250;2022-10-04T17:13:48;16.10;99.90
10010;DHT22;5044;48.652;9.250;2022-10-04T17:16:23;15.90;99.90
10010;DHT22;5044;48.652;9.250;2022-10-04T17:19:14;15.80;99.90
10010;DHT22;5044;48.652;9.250;2022-10-04T17:21:47;15.80;99.90
10010;DHT22;5044;48.652;9.250;2022-10-04T17:24:29;15.50;99.90
10010;DHT22;5044;48.652;9.250;2022-10-04T17:27:12;15.50;99.90
10010;DHT22;5044;48.652;9.250;2022-10-04T17:29:52;15.40;99.90
10010;DHT22;5044;48.652;9.250;2022-10-04T17:32:29;15.30;99.90
10010;DHT22;5044;48.652;9.250;2022-10-04T17:35:10;15.30;99.90
10010;DHT22;5044;48.652;9.250;2022-10-04T17:37:44;15.10;99.90
10010;DHT22;5044;48.652;9.250;2022-10-04T17:40:32;15.10;99.90
10010;DHT22;5044;48.652;9.250;2022-10-04T17:43:09;15.10;99.90
10010;DHT22;5044;48.652;9.250;2022-10-04T17:46:01;15.10;99.90
10010;DHT22;5044;48.652;9.250;2022-10-04T17:48:41;15.10;99.90
10010;DHT22;5044;48.652;9.250;2022-10-04T17:51:39;15.00;99.90
10010;DHT22;5044;48.652;9.250;2022-10-04T17:54:26;15.00;99.90
10010;DHT22;5044;48.652;9.250;2022-10-04T17:57:20;14.90;99.90
10010;DHT22;5044;48.652;9.250;2022-10-04T17:59:55;14.90;99.90
10010;DHT22;5044;48.652;9.250;2022-10-04T18:02:31;14.90;99.90
10010;DHT22;5044;48.652;9.250;2022-10-04T18:05:14;14.80;99.90
10010;DHT22;5044;48.652;9.250;2022-10-04T18:07:46;14.80;99.90
10010;DHT22;5044;48.652;9.250;2022-10-04T18:10:21;14.70;99.90
10010;DHT22;5044;48.652;9.250;2022-10-04T18:12:54;14.70;99.90
10010;DHT22;5044;48.652;9.250;2022-10-04T18:15:26;14.60;99.90
10010;DHT22;5044;48.652;9.250;2022-10-04T18:18:16;14.60;99.90
10010;DHT22;5044;48.652;9.250;2022-10-04T18:21:19;14.50;99.90
10010;DHT22;5044;48.652;9.250;2022-10-04T18:23:55;14.50;99.90
10010;DHT22;5044;48.652;9.250;2022-10-04T18:26:23;14.40;99.90
10010;DHT22;5044;48.652;9.250;2022-10-04T18:28:52;14.40;99.90
10010;DHT22;5044;48.652;9.250;2022-10-04T18:31:30;14.40;99.90
10010;DHT22;5044;48.652;9.250;2022-10-04T18:34:01;14.20;99.90